Airfield :
LOGIN :

Register | Disclaimer

   EN    FR    IT 

 










Legend :    VFR   Marginal VFR   IFR   Intensive IFR   Very Intensive IFR
Visi :
Ceiling :
>= 8 km
>= 3000ft
5 to 8 km
1000 to 3000 ft
1500m to 5 km
500 to 1000 ft
800 to 1500m
200 to 500 ft
< 800m
< 200 ft
Symbols :   Thunderstorms  Fog  Heavy snow  Heavy precipitations  Wind > 20 kt
SIGMETs :     Misc.  Thunderstorms  Icing  Turbulence  Mountain Waves  Volcanic Ashes






- Airport Elevation : 13 ft
- IATA code : GOA


LIMJ - Genoa Cristoforo Colombo

CURRENT METAR :
  • 212320Z VRB02KT 9999 -RA FEW020 BKN040 10/07 Q1011

EXPIRED METARs :
  • 212250Z 04003KT 020V090 9999 -RA FEW020 BKN035 10/06 Q1011
  • 212220Z 07004KT 9999 -RA FEW023 BKN035 10/06 Q1012
  • 212150Z 09007KT 010V100 9999 -RA FEW024 BKN060 10/06 Q1012
  • 212120Z VRB01KT 9999 -RA FEW024 BKN050 10/06 Q1012
  • 212050Z 33008KT 9999 FEW024 BKN060 10/06 Q1012
  • 212020Z 02004KT 290V080 9999 FEW025 BKN060 10/06 Q1012
  • 211950Z 04007KT 010V090 9999 FEW025 BKN045 10/06 Q1012
  • 211920Z 04009KT 9999 -RA FEW027 BKN045 10/06 Q1012
  • 211850Z 04013KT 9999 -RA FEW027 BKN045 10/05 Q1011

TAF TAF LIMJ
Valid from the 22 at 00:00 until the 23 at 00:00 UTC


212300Z 2200/2224 02013KT 9999 SCT015 BKN040
TEMPO 2200/2202 TSRA
TEMPO 2202/2212 RA
BECMG 2206/2208 35018G28KT
BECMG 2218/2220 36016KT



MET'MAP, your aeronautical weather chart ! - Copyright ORBIFLY December 2007 - Disclaimer

ORBIFLY MET'MAP TEAM :

Programming & Development : Alexandra Zaïnal
Original concept : Baudouin d'Aumeries
Technical & hardware support : Manuel Goepfert
Assistance : Marc-Olivier Méhu




SOURCES & CREDITS :

   NOAA